createdAt,value
2018-05-15T00:07:47.931Z,90.90
2018-05-15T00:17:50.031Z,90.50
2018-05-15T00:27:51.420Z,90.50
2018-05-15T00:37:52.788Z,89.60
2018-05-15T00:47:54.109Z,90.40
2018-05-15T00:57:57.585Z,90.70
2018-05-15T01:08:00.650Z,90.70
2018-05-15T01:18:02.012Z,90.40
2018-05-15T01:28:04.174Z,90.40
2018-05-15T01:38:05.669Z,90.40
2018-05-15T01:48:07.035Z,90.40
2018-05-15T01:58:09.184Z,90.70
2018-05-15T02:08:10.547Z,90.70
2018-05-15T02:18:12.635Z,91.40
2018-05-15T02:28:13.980Z,91.40
2018-05-15T02:38:15.348Z,91.10
2018-05-15T02:48:17.472Z,91.20
2018-05-15T02:58:19.616Z,91.20
2018-05-15T03:08:20.992Z,91.20
2018-05-15T03:18:23.113Z,91.40
2018-05-15T03:28:24.478Z,91.40
2018-05-15T03:38:25.903Z,91.30
2018-05-15T03:48:28.022Z,90.50
2018-05-15T03:58:29.333Z,90.40
2018-05-15T04:08:34.804Z,90.60
2018-05-15T04:18:36.121Z,91.10
2018-05-15T04:28:37.528Z,91.00
2018-05-15T04:38:38.942Z,91.50
2018-05-15T04:48:40.389Z,91.40
2018-05-15T04:58:41.828Z,91.60
2018-05-15T05:08:43.246Z,91.10
2018-05-15T05:18:44.665Z,91.00
2018-05-15T05:28:46.121Z,91.20
2018-05-15T05:38:47.540Z,91.00
2018-05-15T05:48:48.992Z,91.50
2018-05-15T05:58:51.145Z,90.40
2018-05-15T06:08:52.566Z,90.40
2018-05-15T06:18:53.954Z,90.70
2018-05-15T06:28:55.349Z,90.70
2018-05-15T06:38:56.757Z,90.80
2018-05-15T06:48:58.321Z,90.50
2018-05-15T06:59:00.621Z,90.10
2018-05-15T07:09:02.812Z,90.00
2018-05-15T07:19:05.039Z,89.40
2018-05-15T07:29:06.461Z,89.30
2018-05-15T07:39:07.899Z,89.40
2018-05-15T07:49:09.305Z,89.20
2018-05-15T07:59:10.682Z,90.40
2018-05-15T08:09:12.061Z,90.70
2018-05-15T08:19:13.439Z,90.80
2018-05-15T08:29:14.866Z,90.70
2018-05-15T08:39:16.298Z,90.00
2018-05-15T08:49:17.751Z,89.40
2018-05-15T08:59:19.974Z,90.20
2018-05-15T09:09:21.415Z,90.20
2018-05-15T09:19:22.848Z,90.10
2018-05-15T09:29:24.318Z,88.50
2018-05-15T09:39:25.683Z,89.20
2018-05-15T09:49:27.089Z,89.20
2018-05-15T09:59:28.415Z,87.20
2018-05-15T10:09:29.740Z,86.20
2018-05-15T10:19:31.057Z,87.50
2018-05-15T10:29:33.178Z,87.00
2018-05-15T10:39:35.298Z,86.90
2018-05-15T10:49:36.676Z,86.90
2018-05-15T10:59:39.093Z,86.30
2018-05-15T11:09:40.441Z,86.30
2018-05-15T11:19:41.811Z,85.30
2018-05-15T11:29:43.126Z,86.30
2018-05-15T11:39:44.461Z,85.50
2018-05-15T11:49:46.637Z,88.40
2018-05-15T11:59:47.148Z,87.50
2018-05-15T12:09:48.484Z,88.10
2018-05-15T12:19:50.628Z,86.50
2018-05-15T12:29:52.092Z,86.40
2018-05-15T12:39:53.388Z,85.40
2018-05-15T12:49:55.493Z,83.60
2018-05-15T12:59:56.861Z,83.60
2018-05-15T13:09:58.215Z,83.60
2018-05-15T13:19:59.543Z,83.80
2018-05-15T13:30:00.870Z,82.60
2018-05-15T13:40:02.224Z,83.80
2018-05-15T13:50:03.575Z,83.50
2018-05-15T14:00:05.666Z,82.00
2018-05-15T14:10:07.036Z,82.10
2018-05-15T14:20:08.384Z,78.00
2018-05-15T14:30:09.742Z,76.40
2018-05-15T14:40:11.099Z,75.90
2018-05-15T14:50:15.749Z,76.80
2018-05-15T15:00:17.894Z,75.90
2018-05-15T15:10:19.624Z,75.40
2018-05-15T15:20:21.459Z,76.10
2018-05-15T15:30:24.594Z,77.10
2018-05-15T15:40:26.426Z,75.90
2018-05-15T15:50:28.108Z,74.90
2018-05-15T16:00:29.619Z,79.60
2018-05-15T16:10:31.080Z,76.70
2018-05-15T16:30:40.593Z,81.50
2018-05-15T16:40:42.069Z,81.80
2018-05-15T16:50:43.540Z,84.40
2018-05-15T17:00:44.992Z,86.60
2018-05-15T17:10:47.574Z,87.40
2018-05-15T17:20:49.315Z,88.50
2018-05-15T17:30:51.187Z,90.10
2018-05-15T17:40:52.710Z,90.40
2018-05-15T17:50:56.532Z,90.40
2018-05-15T18:00:57.914Z,90.40
2018-05-15T18:10:59.273Z,89.70
2018-05-15T18:21:05.097Z,89.50
2018-05-15T18:31:06.472Z,90.20
2018-05-15T18:41:07.818Z,90.70
2018-05-15T18:51:09.943Z,90.80
2018-05-15T19:11:18.197Z,90.90
2018-05-15T19:21:19.523Z,91.60
2018-05-15T19:31:20.862Z,91.70
2018-05-15T19:41:23.062Z,92.00
2018-05-15T19:51:25.196Z,92.00
2018-05-15T20:11:33.693Z,91.60
2018-05-15T20:21:37.049Z,91.70
2018-05-15T20:31:38.475Z,91.60
2018-05-15T20:41:39.931Z,91.80
2018-05-15T20:51:42.204Z,91.90
2018-05-15T21:01:43.579Z,91.90
2018-05-15T21:11:45.694Z,92.00
2018-05-15T21:21:47.802Z,92.10
2018-05-15T21:31:49.880Z,91.90
2018-05-15T21:41:51.190Z,91.90
2018-05-15T21:51:52.501Z,91.90
2018-05-15T22:01:54.686Z,92.30
2018-05-15T22:11:56.046Z,92.30
2018-05-15T22:21:57.393Z,92.20
2018-05-15T22:31:58.755Z,92.50
2018-05-15T22:42:00.137Z,92.20
2018-05-15T22:52:01.469Z,92.10
2018-05-15T23:02:02.784Z,92.10
2018-05-15T23:12:04.108Z,92.00
2018-05-15T23:22:06.214Z,92.30
2018-05-15T23:32:07.541Z,92.30
2018-05-15T23:42:08.849Z,92.50
2018-05-15T23:52:10.201Z,92.70
